Time;durP1;ratioP1;P1;durP2;ratioP2;P2;SDS_P1;SDS_P2;PMS_P1;PMS_P2;Temp;Humidity;BMP_temperature;BMP_pressure;BME280_temperature;BME280_humidity;BME280_pressure;Samples;Min_cycle;Max_cycle;Signal;HPM_P1;HPM_P2
2022/04/20 00:00:03;;;;;;;11.18;5.30;;;;;;;;;;5051250;28;20163;-89
2022/04/20 00:02:37;;;;;;;10.85;5.00;;;;;;;;;;5053937;28;20049;-89
2022/04/20 00:05:05;;;;;;;10.02;4.50;;;;;;;;;;5059760;28;20037;-88
2022/04/20 00:07:36;;;;;;;9.43;4.72;;;;;;;;;;5054833;28;20587;-89
2022/04/20 00:10:04;;;;;;;10.63;4.63;;;;;;;;;;5052574;28;20041;-89
2022/04/20 00:12:31;;;;;;;17.15;4.80;;;;;;;;;;5054702;28;20494;-88
2022/04/20 00:14:59;;;;;;;11.63;5.43;;;;;;;;;;5058508;28;20041;-89
2022/04/20 00:17:27;;;;;;;9.60;5.00;;;;;;;;;;5075517;28;20052;-88
2022/04/20 00:19:55;;;;;;;10.35;4.85;;;;;;;;;;5070247;28;20040;-88
2022/04/20 00:22:23;;;;;;;12.88;5.25;;;;;;;;;;5060656;28;20135;-89
2022/04/20 00:24:51;;;;;;;11.70;4.88;;;;;;;;;;5058769;28;20182;-89
2022/04/20 00:27:19;;;;;;;9.45;4.53;;;;;;;;;;5095523;28;20032;-90
2022/04/20 00:29:47;;;;;;;9.50;4.75;;;;;;;;;;5044025;28;20438;-89
2022/04/20 00:32:15;;;;;;;14.70;4.57;;;;;;;;;;5038865;28;20045;-89
2022/04/20 00:34:43;;;;;;;11.40;4.88;;;;;;;;;;5037497;28;20048;-90
2022/04/20 00:37:11;;;;;;;12.05;4.82;;;;;;;;;;5061344;28;20474;-89
2022/04/20 00:39:39;;;;;;;7.47;4.32;;;;;;;;;;5054754;28;20041;-90
2022/04/20 00:42:07;;;;;;;11.23;4.47;;;;;;;;;;5057135;28;20044;-90
2022/04/20 00:44:35;;;;;;;11.00;4.70;;;;;;;;;;5053698;28;20044;-89
2022/04/20 00:47:03;;;;;;;11.52;4.38;;;;;;;;;;5080203;28;20025;-90
2022/04/20 00:49:33;;;;;;;9.80;5.13;;;;;;;;;;5050845;28;20076;-90
2022/04/20 00:52:02;;;;;;;10.02;5.15;;;;;;;;;;5070344;28;20091;-90
2022/04/20 00:54:31;;;;;;;13.27;6.28;;;;;;;;;;5058674;28;20443;-89
2022/04/20 00:56:59;;;;;;;11.95;5.43;;;;;;;;;;5055858;28;20037;-89
2022/04/20 00:59:30;;;;;;;13.50;5.82;;;;;;;;;;5062043;28;20062;-90
2022/04/20 01:02:00;;;;;;;12.50;5.18;;;;;;;;;;5045232;28;20493;-90
2022/04/20 01:04:32;;;;;;;13.00;5.40;;;;;;;;;;5078778;28;20048;-89
2022/04/20 01:07:16;;;;;;;14.05;5.13;;;;;;;;;;5049925;28;20172;-89
2022/04/20 01:10:11;;;;;;;9.57;4.85;;;;;;;;;;5034716;28;20049;-90
2022/04/20 01:13:07;;;;;;;13.15;5.45;;;;;;;;;;5051606;28;20045;-89
2022/04/20 01:16:06;;;;;;;10.70;4.90;;;;;;;;;;5058874;28;20099;-90
2022/04/20 01:18:49;;;;;;;11.98;4.97;;;;;;;;;;5050962;28;20044;-90
2022/04/20 01:21:25;;;;;;;9.10;4.47;;;;;;;;;;5054588;28;20045;-90
2022/04/20 01:24:03;;;;;;;12.07;5.18;;;;;;;;;;5057900;28;20052;-90
2022/04/20 01:26:47;;;;;;;12.05;4.20;;;;;;;;;;5050551;28;20406;-90
2022/04/20 01:29:26;;;;;;;11.88;4.90;;;;;;;;;;5039062;28;20502;-90
2022/04/20 01:32:03;;;;;;;8.45;4.45;;;;;;;;;;5051012;28;20517;-90
2022/04/20 01:34:52;;;;;;;9.60;4.65;;;;;;;;;;5043111;28;20071;-90
2022/04/20 01:37:19;;;;;;;15.10;4.93;;;;;;;;;;5064612;28;20061;-89
2022/04/20 01:39:47;;;;;;;10.18;5.22;;;;;;;;;;5029164;28;20442;-89
2022/04/20 01:42:15;;;;;;;9.88;5.30;;;;;;;;;;5032744;28;20043;-90
2022/04/20 01:44:47;;;;;;;9.35;4.82;;;;;;;;;;5017026;28;20033;-89
2022/04/20 01:47:47;;;;;;;10.25;5.25;;;;;;;;;;5009715;28;20054;-90
2022/04/20 01:53:49;;;;;;;10.95;5.15;;;;;;;;;;5011945;28;20053;-89
2022/04/20 01:56:35;;;;;;;11.52;4.28;;;;;;;;;;5029218;28;20065;-89
2022/04/20 01:59:39;;;;;;;7.88;4.43;;;;;;;;;;4975937;28;20066;-89
2022/04/20 02:02:36;;;;;;;8.45;3.80;;;;;;;;;;4970009;28;20047;-90
2022/04/20 02:05:19;;;;;;;9.55;4.60;;;;;;;;;;4957132;28;20055;-90
2022/04/20 02:07:49;;;;;;;10.10;4.13;;;;;;;;;;4954162;28;20078;-90
2022/04/20 02:10:22;;;;;;;9.15;3.95;;;;;;;;;;4923941;28;20760;-90
2022/04/20 02:12:49;;;;;;;9.73;4.10;;;;;;;;;;4913551;29;20068;-90
2022/04/20 02:15:31;;;;;;;10.07;4.28;;;;;;;;;;4924342;29;20039;-89
2022/04/20 02:18:01;;;;;;;11.38;3.90;;;;;;;;;;4924200;29;20044;-90
2022/04/20 02:20:49;;;;;;;7.70;3.55;;;;;;;;;;4931574;28;20067;-89
2022/04/20 02:23:16;;;;;;;7.47;4.00;;;;;;;;;;4926644;28;20054;-90
2022/04/20 02:25:44;;;;;;;9.68;4.05;;;;;;;;;;4979274;28;20042;-90
2022/04/20 02:28:12;;;;;;;8.23;4.00;;;;;;;;;;4973168;28;20475;-90
2022/04/20 02:30:40;;;;;;;7.07;3.83;;;;;;;;;;4983598;28;20046;-89
2022/04/20 02:33:08;;;;;;;14.70;4.07;;;;;;;;;;4994576;28;20053;-89
2022/04/20 02:35:37;;;;;;;10.32;4.05;;;;;;;;;;5034278;28;20056;-90
2022/04/20 02:38:15;;;;;;;8.80;4.00;;;;;;;;;;5058948;28;20128;-90
2022/04/20 02:40:43;;;;;;;10.55;3.67;;;;;;;;;;5058321;28;20128;-89
2022/04/20 02:43:11;;;;;;;10.02;3.83;;;;;;;;;;5049894;28;20068;-89
2022/04/20 02:45:38;;;;;;;11.32;3.90;;;;;;;;;;5062436;28;20082;-89
2022/04/20 02:48:09;;;;;;;8.63;3.78;;;;;;;;;;5051755;28;20045;-89
2022/04/20 02:50:39;;;;;;;6.93;3.33;;;;;;;;;;5080673;28;20049;-90
2022/04/20 02:53:09;;;;;;;8.85;4.18;;;;;;;;;;5073113;28;20055;-90
2022/04/20 02:55:42;;;;;;;9.02;4.45;;;;;;;;;;5075116;28;20118;-89
2022/04/20 02:58:11;;;;;;;9.07;4.13;;;;;;;;;;5082582;28;20119;-90
2022/04/20 03:00:45;;;;;;;8.60;4.15;;;;;;;;;;5071954;28;20040;-89
2022/04/20 03:03:33;;;;;;;10.43;3.60;;;;;;;;;;5075815;28;20609;-90
2022/04/20 03:06:20;;;;;;;10.85;4.00;;;;;;;;;;5062806;28;20044;-89
2022/04/20 03:08:48;;;;;;;10.70;4.00;;;;;;;;;;5064782;28;20044;-90
2022/04/20 03:11:19;;;;;;;11.45;4.25;;;;;;;;;;5092530;28;20050;-90
2022/04/20 03:13:49;;;;;;;11.07;3.80;;;;;;;;;;5072997;28;20105;-89
2022/04/20 03:16:18;;;;;;;10.43;4.18;;;;;;;;;;5056822;28;20064;-90
2022/04/20 03:18:48;;;;;;;8.80;3.95;;;;;;;;;;5045214;28;20067;-89
2022/04/20 03:21:18;;;;;;;9.98;4.70;;;;;;;;;;5066143;28;20066;-90
2022/04/20 03:23:46;;;;;;;11.82;4.65;;;;;;;;;;5089908;28;20060;-89
2022/04/20 03:26:20;;;;;;;9.68;4.07;;;;;;;;;;5076287;28;20124;-89
2022/04/20 03:29:20;;;;;;;10.73;4.18;;;;;;;;;;4996748;28;21065;-90
2022/04/20 03:31:49;;;;;;;7.95;4.15;;;;;;;;;;4978659;28;20058;-89
2022/04/20 03:34:16;;;;;;;7.70;3.95;;;;;;;;;;4984450;28;20042;-90
2022/04/20 03:36:44;;;;;;;8.00;3.58;;;;;;;;;;5007479;28;20117;-90
2022/04/20 03:39:13;;;;;;;8.20;3.80;;;;;;;;;;5025322;28;20108;-90
2022/04/20 03:41:40;;;;;;;8.43;3.70;;;;;;;;;;4995830;28;20050;-90
2022/04/20 03:44:08;;;;;;;10.50;3.80;;;;;;;;;;4994220;28;20101;-89
2022/04/20 03:46:36;;;;;;;8.60;4.20;;;;;;;;;;5019561;28;20459;-89
2022/04/20 03:49:04;;;;;;;6.68;3.42;;;;;;;;;;4994221;28;20034;-89
2022/04/20 03:51:32;;;;;;;8.60;4.07;;;;;;;;;;5011704;28;20057;-89
2022/04/20 03:54:00;;;;;;;11.43;4.28;;;;;;;;;;5017572;28;21037;-90
2022/04/20 03:59:16;;;;;;;9.70;4.03;;;;;;;;;;5002210;28;20062;-90
2022/04/20 04:01:46;;;;;;;6.88;3.47;;;;;;;;;;4995018;28;20042;-89
2022/04/20 04:04:15;;;;;;;8.82;4.15;;;;;;;;;;5002413;28;20556;-90
2022/04/20 04:06:45;;;;;;;7.65;4.15;;;;;;;;;;5052391;28;20049;-90
2022/04/20 04:09:13;;;;;;;7.90;4.00;;;;;;;;;;5061006;28;20386;-89
2022/04/20 04:11:40;;;;;;;9.07;3.83;;;;;;;;;;5049720;28;20044;-90
2022/04/20 04:14:08;;;;;;;7.00;3.75;;;;;;;;;;5056508;28;20049;-90
2022/04/20 04:16:36;;;;;;;6.75;3.90;;;;;;;;;;5088719;28;20375;-91
2022/04/20 04:19:06;;;;;;;8.10;3.78;;;;;;;;;;5051376;28;20044;-89
2022/04/20 04:21:40;;;;;;;7.05;3.90;;;;;;;;;;5054422;28;20044;-89
2022/04/20 04:24:36;;;;;;;8.73;4.25;;;;;;;;;;5051149;28;20040;-89
2022/04/20 04:27:10;;;;;;;7.97;3.90;;;;;;;;;;5049737;28;20044;-89
2022/04/20 04:29:40;;;;;;;10.77;3.90;;;;;;;;;;5063543;28;20904;-88
2022/04/20 04:32:12;;;;;;;8.18;4.32;;;;;;;;;;5047555;28;20487;-89
2022/04/20 04:34:40;;;;;;;9.07;4.20;;;;;;;;;;5057683;28;20048;-90
2022/04/20 04:37:13;;;;;;;7.40;3.70;;;;;;;;;;5054849;28;20091;-90
2022/04/20 04:39:43;;;;;;;10.75;3.70;;;;;;;;;;5085833;28;20090;-89
2022/04/20 04:42:10;;;;;;;7.63;3.70;;;;;;;;;;5079579;28;20036;-89
2022/04/20 04:44:38;;;;;;;7.13;3.75;;;;;;;;;;5036433;28;20039;-89
2022/04/20 04:49:57;;;;;;;9.38;4.28;;;;;;;;;;5075137;28;20501;-90
2022/04/20 04:52:24;;;;;;;8.90;3.95;;;;;;;;;;5067061;28;20051;-89
2022/04/20 04:54:58;;;;;;;7.25;3.88;;;;;;;;;;5055029;28;20045;-89
2022/04/20 04:57:28;;;;;;;8.98;3.78;;;;;;;;;;5036007;28;20394;-90
2022/04/20 04:59:56;;;;;;;7.78;3.83;;;;;;;;;;5041254;28;20049;-90
2022/04/20 05:02:26;;;;;;;6.45;3.60;;;;;;;;;;5068832;28;20068;-90
2022/04/20 05:04:54;;;;;;;9.68;3.63;;;;;;;;;;5044624;28;20128;-90
2022/04/20 05:07:26;;;;;;;7.90;3.97;;;;;;;;;;5088050;28;20104;-90
2022/04/20 05:09:59;;;;;;;7.30;3.90;;;;;;;;;;5077537;28;20036;-90
2022/04/20 05:12:36;;;;;;;9.55;4.13;;;;;;;;;;5052844;28;20508;-81
2022/04/20 05:15:05;;;;;;;7.63;3.83;;;;;;;;;;5056949;28;20041;-82
2022/04/20 05:17:32;;;;;;;12.38;3.90;;;;;;;;;;5055543;28;20075;-83
2022/04/20 05:20:00;;;;;;;7.18;3.58;;;;;;;;;;5069501;28;20516;-81
2022/04/20 05:22:28;;;;;;;6.55;3.25;;;;;;;;;;5062721;28;20119;-81
2022/04/20 05:24:56;;;;;;;8.65;3.53;;;;;;;;;;5055756;28;20036;-81
2022/04/20 05:27:24;;;;;;;6.88;3.67;;;;;;;;;;5076576;28;20442;-82
2022/04/20 05:30:04;;;;;;;11.82;3.63;;;;;;;;;;5056521;28;20052;-84
2022/04/20 05:32:32;;;;;;;8.98;4.07;;;;;;;;;;5069778;28;20052;-80
2022/04/20 05:35:05;;;;;;;7.43;3.33;;;;;;;;;;5077289;28;20490;-82
2022/04/20 05:43:10;;;;;;;6.88;3.42;;;;;;;;;;5060333;28;20553;-82
2022/04/20 05:45:38;;;;;;;7.45;3.40;;;;;;;;;;5066266;28;20075;-81
2022/04/20 05:48:27;;;;;;;9.25;3.22;;;;;;;;;;5057641;28;20049;-80
2022/04/20 05:50:56;;;;;;;9.07;3.63;;;;;;;;;;5054111;28;20045;-81
2022/04/20 05:53:26;;;;;;;6.80;3.38;;;;;;;;;;5050968;28;20056;-81
2022/04/20 05:55:54;;;;;;;7.65;3.08;;;;;;;;;;5052326;28;20115;-81
2022/04/20 05:58:22;;;;;;;5.57;3.15;;;;;;;;;;5050327;28;20044;-81
2022/04/20 06:00:52;;;;;;;12.73;3.70;;;;;;;;;;5055395;28;20079;-82
2022/04/20 06:03:47;;;;;;;5.90;3.00;;;;;;;;;;5065056;28;20075;-82
2022/04/20 06:06:26;;;;;;;7.18;3.22;;;;;;;;;;5053642;28;20048;-82
2022/04/20 06:08:56;;;;;;;7.47;3.40;;;;;;;;;;5070322;28;20052;-83
2022/04/20 06:11:45;;;;;;;8.40;3.45;;;;;;;;;;5034517;28;20063;-82
2022/04/20 06:14:19;;;;;;;10.02;3.40;;;;;;;;;;5003944;28;20053;-82
2022/04/20 06:17:04;;;;;;;6.97;4.05;;;;;;;;;;5038537;28;20144;-83
2022/04/20 06:19:36;;;;;;;7.93;3.50;;;;;;;;;;5032827;28;20051;-82
2022/04/20 06:22:12;;;;;;;7.28;3.47;;;;;;;;;;5032726;28;20053;-82
2022/04/20 06:24:50;;;;;;;9.18;4.00;;;;;;;;;;5017926;28;20044;-82
2022/04/20 06:27:40;;;;;;;6.60;3.45;;;;;;;;;;5030800;28;20045;-82
2022/04/20 06:30:26;;;;;;;8.57;4.13;;;;;;;;;;5036828;28;20065;-82
2022/04/20 06:33:02;;;;;;;7.78;4.25;;;;;;;;;;5018998;28;20049;-82
2022/04/20 06:35:58;;;;;;;9.77;3.92;;;;;;;;;;5038341;28;20061;-82
2022/04/20 06:38:44;;;;;;;7.25;3.38;;;;;;;;;;5016835;28;20611;-82
2022/04/20 06:41:30;;;;;;;6.45;3.63;;;;;;;;;;5021095;28;20054;-80
2022/04/20 06:44:06;;;;;;;10.70;3.75;;;;;;;;;;5012087;28;20045;-81
2022/04/20 06:46:34;;;;;;;8.20;3.63;;;;;;;;;;5012340;28;20060;-83
2022/04/20 06:49:24;;;;;;;10.38;4.20;;;;;;;;;;5064964;28;20041;-81
2022/04/20 07:00:32;;;;;;;10.43;3.22;;;;;;;;;;5053576;28;20115;-81
2022/04/20 07:03:36;;;;;;;5.10;2.72;;;;;;;;;;5043927;28;20085;-81
2022/04/20 07:06:22;;;;;;;7.30;3.05;;;;;;;;;;5056100;28;20142;-81
2022/04/20 07:09:12;;;;;;;6.15;3.08;;;;;;;;;;5038906;28;20568;-82
2022/04/20 07:12:19;;;;;;;7.60;2.75;;;;;;;;;;4997259;28;20068;-81
2022/04/20 07:14:46;;;;;;;7.90;3.25;;;;;;;;;;4996848;28;20526;-81
2022/04/20 07:17:15;;;;;;;7.10;2.97;;;;;;;;;;4995765;28;20507;-81
2022/04/20 07:19:50;;;;;;;4.82;2.35;;;;;;;;;;4995557;28;20092;-81
2022/04/20 07:22:24;;;;;;;4.63;2.67;;;;;;;;;;4981930;28;20062;-80
2022/04/20 07:25:05;;;;;;;6.60;2.20;;;;;;;;;;4992203;28;20054;-82
2022/04/20 07:27:55;;;;;;;6.78;2.72;;;;;;;;;;4993135;28;20153;-81
2022/04/20 07:30:47;;;;;;;7.72;2.58;;;;;;;;;;4988504;28;20060;-82
2022/04/20 07:33:34;;;;;;;7.72;2.70;;;;;;;;;;4997460;28;20431;-80
2022/04/20 07:36:22;;;;;;;4.85;2.38;;;;;;;;;;4994479;28;20136;-81
2022/04/20 07:39:15;;;;;;;6.18;2.78;;;;;;;;;;4969328;28;20042;-81
2022/04/20 07:42:00;;;;;;;3.67;2.00;;;;;;;;;;4975335;28;20051;-81
2022/04/20 07:44:36;;;;;;;5.43;2.75;;;;;;;;;;5055018;28;20044;-81
2022/04/20 07:47:30;;;;;;;6.15;2.15;;;;;;;;;;5027710;28;20529;-81
2022/04/20 07:50:18;;;;;;;5.07;2.30;;;;;;;;;;5017116;28;20057;-81
2022/04/20 07:53:12;;;;;;;5.60;2.33;;;;;;;;;;4983002;28;20077;-80
2022/04/20 07:55:58;;;;;;;4.32;2.10;;;;;;;;;;4985567;28;20073;-81
2022/04/20 07:58:32;;;;;;;3.95;2.17;;;;;;;;;;4974250;28;20054;-81
2022/04/20 08:01:19;;;;;;;5.47;2.30;;;;;;;;;;4981640;28;20046;-81
2022/04/20 08:03:46;;;;;;;4.78;2.30;;;;;;;;;;4978803;28;20076;-81
2022/04/20 08:06:14;;;;;;;7.13;2.10;;;;;;;;;;4982348;28;20038;-81
2022/04/20 08:08:42;;;;;;;4.82;2.30;;;;;;;;;;4964587;28;20051;-80
2022/04/20 08:11:17;;;;;;;4.45;2.05;;;;;;;;;;4965802;28;20226;-80
2022/04/20 08:16:43;;;;;;;4.00;2.03;;;;;;;;;;4982718;28;20054;-80
2022/04/20 08:19:29;;;;;;;4.25;2.20;;;;;;;;;;4983573;28;20049;-81
2022/04/20 08:22:14;;;;;;;3.58;1.67;;;;;;;;;;4981830;28;20061;-81
2022/04/20 08:24:45;;;;;;;5.30;2.10;;;;;;;;;;5003583;28;20054;-81
2022/04/20 08:27:14;;;;;;;4.13;2.10;;;;;;;;;;4997860;28;20034;-81
2022/04/20 08:29:44;;;;;;;4.75;2.33;;;;;;;;;;5027288;28;20052;-81
2022/04/20 08:32:13;;;;;;;4.18;2.05;;;;;;;;;;5085635;28;20060;-82
2022/04/20 08:34:40;;;;;;;6.03;2.00;;;;;;;;;;5051655;28;20041;-81
2022/04/20 08:37:26;;;;;;;5.85;2.28;;;;;;;;;;5055675;28;20144;-83
2022/04/20 08:39:54;;;;;;;4.70;2.13;;;;;;;;;;5052662;28;20516;-81
2022/04/20 08:42:22;;;;;;;4.30;2.50;;;;;;;;;;5049579;28;20045;-81
2022/04/20 08:44:51;;;;;;;6.63;2.22;;;;;;;;;;5053572;28;20037;-81
2022/04/20 08:47:23;;;;;;;5.22;2.42;;;;;;;;;;5049075;28;20052;-81
2022/04/20 08:49:51;;;;;;;6.15;2.70;;;;;;;;;;5051247;28;20029;-81
2022/04/20 08:52:42;;;;;;;5.82;2.17;;;;;;;;;;5052117;28;20037;-82
2022/04/20 08:55:17;;;;;;;9.25;2.50;;;;;;;;;;5085664;28;20075;-82
2022/04/20 08:57:47;;;;;;;4.30;2.25;;;;;;;;;;5066117;28;20401;-81
2022/04/20 09:00:20;;;;;;;7.65;2.42;;;;;;;;;;5053892;28;20124;-81
2022/04/20 09:02:52;;;;;;;5.00;2.65;;;;;;;;;;5054652;28;20068;-81
2022/04/20 09:05:21;;;;;;;8.00;2.58;;;;;;;;;;5053403;28;20033;-81
2022/04/20 09:07:48;;;;;;;4.38;2.50;;;;;;;;;;5055044;28;20072;-81
2022/04/20 09:10:16;;;;;;;5.43;2.33;;;;;;;;;;5052975;28;20035;-81
2022/04/20 09:12:46;;;;;;;3.40;1.83;;;;;;;;;;5082488;28;20571;-82
2022/04/20 09:15:28;;;;;;;5.78;2.25;;;;;;;;;;5050807;28;20099;-81
2022/04/20 09:17:56;;;;;;;4.70;1.48;;;;;;;;;;5056096;28;20036;-82
2022/04/20 09:20:25;;;;;;;3.78;1.70;;;;;;;;;;5087499;28;20077;-80
2022/04/20 09:23:03;;;;;;;4.30;1.90;;;;;;;;;;5052557;28;20074;-80
2022/04/20 09:25:34;;;;;;;5.80;2.42;;;;;;;;;;5053304;28;20041;-82
2022/04/20 09:28:07;;;;;;;4.85;2.25;;;;;;;;;;5053725;28;20041;-82
2022/04/20 09:30:37;;;;;;;3.10;1.30;;;;;;;;;;5052482;28;20472;-82
2022/04/20 09:33:10;;;;;;;3.90;2.47;;;;;;;;;;5044560;28;20493;-82
2022/04/20 09:35:43;;;;;;;3.17;1.95;;;;;;;;;;5058828;28;20060;-81
2022/04/20 09:38:11;;;;;;;3.75;1.77;;;;;;;;;;5056912;28;20037;-81
2022/04/20 09:40:44;;;;;;;3.83;1.80;;;;;;;;;;5052078;28;20527;-82
2022/04/20 09:43:15;;;;;;;3.67;1.77;;;;;;;;;;5055929;28;20040;-82
2022/04/20 09:45:43;;;;;;;3.30;1.35;;;;;;;;;;5047485;28;20041;-82
2022/04/20 09:51:11;;;;;;;5.35;1.60;;;;;;;;;;5052114;28;20049;-81
2022/04/20 09:53:41;;;;;;;3.97;1.75;;;;;;;;;;5048727;28;20049;-82
2022/04/20 09:56:16;;;;;;;2.65;1.60;;;;;;;;;;5051920;28;20037;-81
2022/04/20 09:58:46;;;;;;;3.40;1.80;;;;;;;;;;5052873;28;20079;-83
2022/04/20 10:01:25;;;;;;;3.72;1.70;;;;;;;;;;5053866;28;20037;-81
2022/04/20 10:03:54;;;;;;;4.40;1.55;;;;;;;;;;5085935;28;20045;-81
2022/04/20 10:06:23;;;;;;;4.35;1.95;;;;;;;;;;5054191;28;20076;-82
2022/04/20 10:08:50;;;;;;;5.97;1.80;;;;;;;;;;5089552;28;20109;-82
2022/04/20 10:11:22;;;;;;;3.55;1.67;;;;;;;;;;5090160;28;20100;-81
2022/04/20 10:16:50;;;;;;;6.47;1.75;;;;;;;;;;5051830;28;20111;-81
2022/04/20 10:19:28;;;;;;;3.63;1.70;;;;;;;;;;5054421;28;20044;-81
2022/04/20 10:21:57;;;;;;;2.50;1.40;;;;;;;;;;5054992;28;20057;-81
2022/04/20 10:24:28;;;;;;;3.30;1.48;;;;;;;;;;5050631;28;20076;-81
2022/04/20 10:27:06;;;;;;;5.22;1.70;;;;;;;;;;5054032;28;20045;-82
2022/04/20 10:29:46;;;;;;;3.70;1.42;;;;;;;;;;5033216;28;20045;-81
2022/04/20 10:32:22;;;;;;;3.97;1.90;;;;;;;;;;5049403;28;20098;-82
2022/04/20 10:34:53;;;;;;;3.10;1.45;;;;;;;;;;5035177;28;20121;-83
2022/04/20 10:37:31;;;;;;;4.15;1.63;;;;;;;;;;5039286;28;20049;-82
2022/04/20 10:40:16;;;;;;;3.08;1.60;;;;;;;;;;5047750;28;20054;-82
2022/04/20 10:43:18;;;;;;;5.63;1.30;;;;;;;;;;5035949;28;20079;-82
2022/04/20 10:46:02;;;;;;;3.20;1.60;;;;;;;;;;5047143;28;20056;-82
2022/04/20 10:48:52;;;;;;;3.38;1.65;;;;;;;;;;5038594;28;20730;-81
2022/04/20 10:51:40;;;;;;;3.10;1.50;;;;;;;;;;5032467;28;20060;-82
2022/04/20 10:54:29;;;;;;;6.85;1.80;;;;;;;;;;5053528;28;20045;-81
2022/04/20 10:57:00;;;;;;;3.70;1.42;;;;;;;;;;5032656;28;20501;-82
2022/04/20 10:59:29;;;;;;;3.83;1.85;;;;;;;;;;5092414;28;20084;-82
2022/04/20 11:02:02;;;;;;;4.65;1.50;;;;;;;;;;5057883;28;20049;-82
2022/04/20 11:04:46;;;;;;;3.00;1.48;;;;;;;;;;5061412;28;20041;-81
2022/04/20 11:07:32;;;;;;;2.90;1.60;;;;;;;;;;5063180;28;20075;-81
2022/04/20 11:10:05;;;;;;;4.68;1.95;;;;;;;;;;5053806;28;20134;-81
2022/04/20 11:18:38;;;;;;;5.80;1.70;;;;;;;;;;5052819;28;20052;-82
2022/04/20 11:21:33;;;;;;;4.85;2.00;;;;;;;;;;5060955;28;21412;-82
2022/04/20 11:24:11;;;;;;;3.08;1.48;;;;;;;;;;5046981;28;20168;-82
2022/04/20 11:26:39;;;;;;;3.15;1.60;;;;;;;;;;5048658;28;20155;-82
2022/04/20 11:29:15;;;;;;;3.63;1.65;;;;;;;;;;5051831;28;20057;-82
2022/04/20 11:32:02;;;;;;;2.78;1.60;;;;;;;;;;5050181;28;20510;-80
2022/04/20 11:34:39;;;;;;;3.30;1.42;;;;;;;;;;5035486;28;20170;-81
2022/04/20 11:37:07;;;;;;;6.35;1.60;;;;;;;;;;5047488;28;20612;-81
2022/04/20 11:39:35;;;;;;;2.42;1.42;;;;;;;;;;5044684;28;20057;-81
2022/04/20 11:42:04;;;;;;;3.72;1.38;;;;;;;;;;5032144;28;20045;-81
2022/04/20 11:44:40;;;;;;;3.50;1.52;;;;;;;;;;5048724;28;20043;-80
2022/04/20 11:47:17;;;;;;;3.67;1.70;;;;;;;;;;5062709;28;20518;-81
2022/04/20 11:49:48;;;;;;;3.17;1.60;;;;;;;;;;5048568;28;20049;-81
2022/04/20 11:52:26;;;;;;;3.58;1.48;;;;;;;;;;5067081;28;20095;-81
2022/04/20 11:55:14;;;;;;;3.85;1.65;;;;;;;;;;5050385;28;20045;-81
2022/04/20 11:57:42;;;;;;;2.20;1.20;;;;;;;;;;5050846;28;20080;-81
2022/04/20 12:00:11;;;;;;;5.65;1.55;;;;;;;;;;5055699;28;20036;-81
2022/04/20 12:02:39;;;;;;;3.20;1.70;;;;;;;;;;5050814;28;20044;-81
2022/04/20 12:05:14;;;;;;;4.78;1.85;;;;;;;;;;5084190;28;20045;-81
2022/04/20 12:07:43;;;;;;;3.88;1.63;;;;;;;;;;5055263;28;20040;-81
2022/04/20 12:10:12;;;;;;;4.32;1.55;;;;;;;;;;5052196;28;20047;-82
2022/04/20 12:12:42;;;;;;;3.15;1.42;;;;;;;;;;5054102;28;20045;-81
2022/04/20 12:15:12;;;;;;;3.60;1.38;;;;;;;;;;5052689;28;20029;-82
2022/04/20 12:17:41;;;;;;;5.43;1.95;;;;;;;;;;5053561;28;20061;-81
2022/04/20 12:20:09;;;;;;;4.20;1.40;;;;;;;;;;5059695;28;20095;-82
2022/04/20 12:22:40;;;;;;;3.17;1.60;;;;;;;;;;5055608;28;20490;-81
2022/04/20 12:25:19;;;;;;;4.28;1.42;;;;;;;;;;5053129;28;20044;-82
2022/04/20 12:27:51;;;;;;;2.45;1.35;;;;;;;;;;5056039;28;20110;-81
2022/04/20 12:30:35;;;;;;;2.80;1.55;;;;;;;;;;5053485;28;20033;-80
2022/04/20 12:33:04;;;;;;;2.63;1.35;;;;;;;;;;5052390;28;20476;-81
2022/04/20 12:35:32;;;;;;;2.30;1.08;;;;;;;;;;5052651;28;20051;-81
2022/04/20 12:38:12;;;;;;;3.95;1.52;;;;;;;;;;5055472;28;20124;-81
2022/04/20 12:40:40;;;;;;;3.25;1.60;;;;;;;;;;5053901;28;20037;-81
2022/04/20 12:43:12;;;;;;;4.40;1.40;;;;;;;;;;5051269;28;20772;-81
2022/04/20 12:45:43;;;;;;;3.72;1.27;;;;;;;;;;5093711;28;20052;-81
2022/04/20 12:48:11;;;;;;;4.10;1.50;;;;;;;;;;5054768;28;20063;-82
2022/04/20 12:50:41;;;;;;;4.22;1.33;;;;;;;;;;5055948;28;20048;-82
2022/04/20 12:53:09;;;;;;;2.25;1.20;;;;;;;;;;5089114;28;20037;-82
2022/04/20 13:04:15;;;;;;;8.07;1.58;;;;;;;;;;5068436;28;20880;-81
2022/04/20 13:06:42;;;;;;;3.22;1.20;;;;;;;;;;5067700;28;20048;-81
2022/04/20 13:09:11;;;;;;;4.97;1.40;;;;;;;;;;5061092;28;20047;-81
2022/04/20 13:11:38;;;;;;;4.05;1.00;;;;;;;;;;5064535;28;20623;-82
2022/04/20 13:14:09;;;;;;;3.28;1.40;;;;;;;;;;5062027;28;20047;-82
2022/04/20 13:16:36;;;;;;;2.50;1.20;;;;;;;;;;5082438;28;20448;-82
2022/04/20 13:19:04;;;;;;;2.20;1.00;;;;;;;;;;5055381;28;20102;-82
2022/04/20 13:21:32;;;;;;;2.05;1.10;;;;;;;;;;5063649;28;20090;-81
2022/04/20 13:24:02;;;;;;;2.40;1.20;;;;;;;;;;5066325;28;20486;-81
2022/04/20 13:29:16;;;;;;;4.40;1.40;;;;;;;;;;5066511;28;20056;-81
2022/04/20 13:31:45;;;;;;;2.70;1.30;;;;;;;;;;5070671;28;20131;-81
2022/04/20 13:34:12;;;;;;;4.43;1.60;;;;;;;;;;5063564;28;20041;-81
2022/04/20 13:36:40;;;;;;;4.10;1.40;;;;;;;;;;5058687;28;20057;-81
2022/04/20 13:39:08;;;;;;;6.13;1.58;;;;;;;;;;5064366;28;20488;-81
2022/04/20 13:41:37;;;;;;;2.92;1.40;;;;;;;;;;5064393;28;20028;-81
2022/04/20 13:44:05;;;;;;;3.90;1.45;;;;;;;;;;5060511;28;20036;-81
2022/04/20 13:46:32;;;;;;;4.93;1.27;;;;;;;;;;5089335;28;20498;-81
2022/04/20 13:49:00;;;;;;;2.85;1.33;;;;;;;;;;5060048;28;20091;-81
2022/04/20 13:51:28;;;;;;;4.28;1.50;;;;;;;;;;5089512;28;20041;-81
2022/04/20 13:53:57;;;;;;;5.30;1.50;;;;;;;;;;5087088;28;20009;-81
2022/04/20 13:56:24;;;;;;;3.42;1.83;;;;;;;;;;5073742;28;20460;-81
2022/04/20 13:58:52;;;;;;;3.33;1.60;;;;;;;;;;5057528;28;20452;-81
2022/04/20 14:01:20;;;;;;;3.15;1.50;;;;;;;;;;5054107;28;20033;-81
2022/04/20 14:03:48;;;;;;;4.45;1.48;;;;;;;;;;5053916;28;20478;-81
2022/04/20 14:06:16;;;;;;;3.10;1.30;;;;;;;;;;5056283;28;20037;-81
2022/04/20 14:08:44;;;;;;;2.92;1.23;;;;;;;;;;5055944;28;20856;-81
2022/04/20 14:11:14;;;;;;;2.72;1.52;;;;;;;;;;5051227;28;20040;-81
2022/04/20 14:13:43;;;;;;;3.13;1.40;;;;;;;;;;5053024;28;20060;-81
2022/04/20 14:16:10;;;;;;;2.97;1.52;;;;;;;;;;5050149;28;20517;-81
2022/04/20 14:18:38;;;;;;;6.93;1.55;;;;;;;;;;5055338;28;20040;-81
2022/04/20 14:21:07;;;;;;;3.40;1.65;;;;;;;;;;5054249;28;20132;-81
2022/04/20 14:23:34;;;;;;;3.10;1.60;;;;;;;;;;5086374;28;20045;-81
2022/04/20 14:34:20;;;;;;;2.55;1.20;;;;;;;;;;5053825;28;20037;-80
2022/04/20 14:36:48;;;;;;;2.67;1.30;;;;;;;;;;5057894;28;20037;-82
2022/04/20 14:39:16;;;;;;;3.10;1.40;;;;;;;;;;5085797;28;20051;-81
2022/04/20 14:41:44;;;;;;;2.60;1.40;;;;;;;;;;5065960;28;20064;-81
2022/04/20 14:44:12;;;;;;;2.85;1.40;;;;;;;;;;5048461;28;20045;-81
2022/04/20 14:46:40;;;;;;;5.57;1.20;;;;;;;;;;5055441;28;20044;-81
2022/04/20 14:49:08;;;;;;;3.40;1.27;;;;;;;;;;5088488;28;20045;-81
2022/04/20 14:51:36;;;;;;;2.40;1.30;;;;;;;;;;5084886;28;20041;-81
2022/04/20 14:54:05;;;;;;;2.47;1.42;;;;;;;;;;5086818;28;20041;-80
2022/04/20 14:56:32;;;;;;;3.13;1.40;;;;;;;;;;5085048;28;20497;-81
2022/04/20 14:59:00;;;;;;;2.22;1.00;;;;;;;;;;5056403;28;20033;-80
2022/04/20 15:01:29;;;;;;;4.50;1.10;;;;;;;;;;5053547;28;20041;-80
2022/04/20 15:03:59;;;;;;;2.17;0.82;;;;;;;;;;5053446;28;20091;-82
2022/04/20 15:06:27;;;;;;;1.58;0.77;;;;;;;;;;5057268;28;20972;-82
2022/04/20 15:08:54;;;;;;;2.35;0.88;;;;;;;;;;5056323;28;20045;-82
2022/04/20 15:11:23;;;;;;;1.70;0.90;;;;;;;;;;5059498;28;20032;-84
2022/04/20 15:13:51;;;;;;;1.52;0.68;;;;;;;;;;5057323;28;20032;-82
2022/04/20 15:16:19;;;;;;;4.15;1.10;;;;;;;;;;5088850;28;20547;-82
2022/04/20 15:18:46;;;;;;;2.80;1.02;;;;;;;;;;5058446;28;20036;-83
2022/04/20 15:21:14;;;;;;;2.00;1.02;;;;;;;;;;5089995;28;20061;-82
2022/04/20 15:23:53;;;;;;;2.67;1.00;;;;;;;;;;5058293;28;20043;-82
2022/04/20 15:26:21;;;;;;;2.45;1.38;;;;;;;;;;5061509;28;20033;-83
2022/04/20 15:28:49;;;;;;;2.88;1.40;;;;;;;;;;5057503;28;20048;-83
2022/04/20 15:31:16;;;;;;;2.10;1.10;;;;;;;;;;5058885;28;20032;-84
2022/04/20 15:33:45;;;;;;;2.83;1.50;;;;;;;;;;5063517;28;20044;-83
2022/04/20 15:36:13;;;;;;;6.65;1.63;;;;;;;;;;5060060;28;20048;-83
2022/04/20 15:38:40;;;;;;;3.00;1.70;;;;;;;;;;5058068;28;20037;-82
2022/04/20 15:41:10;;;;;;;3.50;1.65;;;;;;;;;;5061832;28;20036;-82
2022/04/20 15:43:39;;;;;;;5.60;1.55;;;;;;;;;;5057295;28;20029;-82
2022/04/20 15:46:07;;;;;;;2.67;1.38;;;;;;;;;;5057485;28;20041;-82
2022/04/20 15:48:36;;;;;;;3.50;1.63;;;;;;;;;;5054908;28;20242;-82
2022/04/20 15:51:04;;;;;;;2.90;1.52;;;;;;;;;;5057951;28;20045;-82
2022/04/20 15:53:33;;;;;;;4.00;1.98;;;;;;;;;;5056325;28;20855;-82
2022/04/20 16:01:33;;;;;;;4.53;2.13;;;;;;;;;;5092433;28;20046;-82
2022/04/20 16:04:01;;;;;;;4.75;1.88;;;;;;;;;;5059331;28;20078;-82
2022/04/20 16:06:28;;;;;;;4.38;2.30;;;;;;;;;;5052798;28;20047;-82
2022/04/20 16:08:57;;;;;;;3.60;2.20;;;;;;;;;;5057283;28;20045;-82
2022/04/20 16:11:26;;;;;;;6.05;2.58;;;;;;;;;;5059202;28;20041;-82
2022/04/20 16:13:54;;;;;;;3.80;2.13;;;;;;;;;;5060272;28;20067;-83
2022/04/20 16:16:22;;;;;;;4.35;1.83;;;;;;;;;;5055084;28;20075;-81
2022/04/20 16:18:50;;;;;;;3.78;2.10;;;;;;;;;;5062162;28;20052;-83